PWSweather.com
Personal Weather Stations
Station Observations
KNCGREEN1000
Bell Orchard Drive, Greensboro, NC 27455

Bell Orchard DriveGreensboro, NC 27455

Lat: 36.132, Lon: -79.8

Elevation: 876

Station Type: Acurite Atlas

Latest ConditionsUpdated 1:40:01 AM EST Saturday, Jan 18, 2020
Currently Today's Max Today's Min Today's Average
Temperature 37.4°F3.0°C 38.1°F3.4°C 37.4°F3.0°C 37.7°F3.2°C
Dew Point 19.3°F-7.1°C 19.5°F-6.9°C 17.8°F-7.9°C 18.7°F-7.4°C
Winds 1.0 mph SSE1.6 kmh SSE 5.0 mph -8.0 kmh - - 2.1 mph 3.4 kmh
Wind Gusts -- -- - -
Humidity 48% 48% 44% 46%
Pressure 30.66 in1038.3 mb 30.69 in1039.3 mb 30.66 in1038.3 mb -
Hour Temp Dew Point Humidity Winds Wind Gusts Pressure Precip Precip Rate Daily Precip Total
01:40 AM 37.4°F3.0°C 19.3°F-7.1°C 48% 1.0 mph SSE1.6 kmh SSE -- 30.66 in1038.3 mb 0.00 in0.0 mm 0.00 in0.0 mm 0.00 in0.0 mm
01:35 AM 37.5°F3.1°C 19.5°F-6.9°C 48% 1.0 mph SSE1.6 kmh SSE -- 30.66 in1038.3 mb 0.00 in0.0 mm 0.00 in0.0 mm 0.00 in0.0 mm
01:31 AM 37.5°F3.1°C 19.5°F-6.9°C 48% 2.0 mph ESE3.2 kmh ESE -- 30.66 in1038.3 mb 0.00 in0.0 mm 0.00 in0.0 mm 0.00 in0.0 mm
01:25 AM 37.6°F3.1°C 19.5°F-6.9°C 48% 1.0 mph SE1.6 kmh SE -- 30.66 in1038.3 mb 0.00 in0.0 mm 0.00 in0.0 mm 0.00 in0.0 mm
01:20 AM 37.6°F3.1°C 19.0°F-7.2°C 47% 2.0 mph S3.2 kmh S -- 30.67 in1038.6 mb 0.00 in0.0 mm 0.00 in0.0 mm 0.00 in0.0 mm
01:16 AM 37.7°F3.2°C 18.6°F-7.4°C 46% 3.0 mph SSE4.8 kmh SSE -- 30.67 in1038.6 mb 0.00 in0.0 mm 0.00 in0.0 mm 0.00 in0.0 mm
01:10 AM 37.7°F3.2°C 18.6°F-7.4°C 46% 3.0 mph SSE4.8 kmh SSE -- 30.67 in1038.6 mb 0.00 in0.0 mm 0.00 in0.0 mm 0.00 in0.0 mm
01:05 AM 37.7°F3.2°C 18.6°F-7.4°C 46% 3.0 mph SE4.8 kmh SE -- 30.67 in1038.6 mb 0.00 in0.0 mm 0.00 in0.0 mm 0.00 in0.0 mm
01:01 AM 37.7°F3.2°C 18.6°F-7.4°C 46% 2.0 mph SE3.2 kmh SE -- 30.67 in1038.6 mb 0.00 in0.0 mm 0.00 in0.0 mm 0.00 in0.0 mm
12:55 AM 37.7°F3.2°C 19.1°F-7.2°C 47% 3.0 mph SSE4.8 kmh SSE -- 30.67 in1038.6 mb 0.00 in0.0 mm 0.00 in0.0 mm 0.00 in0.0 mm
12:50 AM 37.7°F3.2°C 18.6°F-7.4°C 46% 2.0 mph SSE3.2 kmh SSE -- 30.67 in1038.6 mb 0.00 in0.0 mm 0.00 in0.0 mm 0.00 in0.0 mm
12:45 AM 37.7°F3.2°C 18.6°F-7.4°C 46% 3.0 mph SE4.8 kmh SE -- 30.68 in1038.9 mb 0.00 in0.0 mm 0.00 in0.0 mm 0.00 in0.0 mm
12:41 AM 37.7°F3.2°C 18.1°F-7.7°C 45% 1.0 mph SSE1.6 kmh SSE -- 30.68 in1038.9 mb 0.00 in0.0 mm 0.00 in0.0 mm 0.00 in0.0 mm
12:36 AM 37.6°F3.1°C 18.5°F-7.5°C 46% 2.0 mph S3.2 kmh S -- 30.68 in1038.9 mb 0.00 in0.0 mm 0.00 in0.0 mm 0.00 in0.0 mm
12:30 AM 37.7°F3.2°C 18.6°F-7.4°C 46% 2.0 mph S3.2 kmh S -- 30.68 in1038.9 mb 0.00 in0.0 mm 0.00 in0.0 mm 0.00 in0.0 mm
12:25 AM 37.8°F3.2°C 18.1°F-7.7°C 45% 3.0 mph SSE4.8 kmh SSE -- 30.68 in1038.9 mb 0.00 in0.0 mm 0.00 in0.0 mm 0.00 in0.0 mm
12:21 AM 37.8°F3.2°C 18.1°F-7.7°C 45% 1.0 mph SSE1.6 kmh SSE -- 30.68 in1038.9 mb 0.00 in0.0 mm 0.00 in0.0 mm 0.00 in0.0 mm
12:16 AM 37.9°F3.3°C 18.3°F-7.6°C 45% 2.0 mph S3.2 kmh S -- 30.68 in1038.9 mb 0.00 in0.0 mm 0.00 in0.0 mm 0.00 in0.0 mm
12:10 AM 38.0°F3.3°C 17.8°F-7.9°C 44% 1.0 mph S1.6 kmh S -- 30.69 in1039.3 mb 0.00 in0.0 mm 0.00 in0.0 mm 0.00 in0.0 mm
12:05 AM 38.0°F3.3°C 18.8°F-7.3°C 46% 5.0 mph SSE8.0 kmh SSE -- 30.68 in1038.9 mb 0.00 in0.0 mm 0.00 in0.0 mm 0.00 in0.0 mm
12:01 AM 38.1°F3.4°C 19.0°F-7.2°C 46% 2.0 mph SE3.2 kmh SE -- 30.68 in1038.9 mb 0.00 in0.0 mm 0.00 in0.0 mm 0.00 in0.0 mm